Red Lake, Texas
Current Conditions -  °F | °C
As of 9:15 PM on Saturday 20 Dec 2014 (Local Time) from KPSN Reporting Station
Overcast Overcast  
Wind Chill:   Ceiling: 2300
Heat Index:   Visibility: 7mi
Dew Point:   Wind: 0mph
Humidity: 97%   Direction: NA
Pressure: 30.2"   Gusts: NA
Location:  31.5818°N, 95.8921°W
Report Text: KPSN 210315Z AUTO 00000KT 7SM OVC023 07/06 A3020 RMK AO2 T00700065
Loading
Personal Weather Stations






























Interactive Weather Map New forecast layout! Learn more

10-Day Weather Forecast

Advertisements
Track Severe Weather on mobile